Maldives Meteorological Service

TAFS

Station TAF
VRMM
VRMM 200500Z 2006/2012 07011KT 6000 FEW019 BECMG 2006/2010 5000 HZ FEW020CB=
VRMH
VRMH 200500Z 2006/2006 05008KT 5000 HZ FEW018 TEMPO 2006/2011 5000 –TSRA FEW019CB=
VRMK
VRMK 200500Z 2006/2006 05010KT 7000 FEW018 TEMPO 1907/1912 5000 -SHRA FEW017CB=
VRMT
VRMT 200500Z 2006/2006 05007KT 7000 FEW018 TEMPO 2006/2011 5000 HZ FEW019CB TEMPO 2011/2016 5000 –TSRA FEW017CB=
VRMG
VRMG 200500Z 2006/2012 07007KT 7000 FEW018 BECMG 2006/2009 5000 HZ FEW018CB TEMPO 2009/2014 4000 TSRA SCT017CB=